Woodhaven, Michigan
Current Conditions -  °F | °C
As of 8:34 AM on Saturday 20 Dec 2014 (Local Time) from KONZ Reporting Station
Overcast Overcast  
Wind Chill: 28°   Ceiling: 2300
Heat Index: 28°   Visibility: 10mi
Dew Point: 23°   Wind: 0mph
Humidity: 80%   Direction: NA
Pressure: 30.29"   Gusts: NA
Location:  42.14°N, 83.24°W
Report Text: KONZ 201334Z AUTO 00000KT 10SM OVC023 M02/M05 A3029 RMK AO2
Loading
Personal Weather Stations






























Interactive Weather Map New forecast layout! Learn more

10-Day Weather Forecast

Advertisements
Track Severe Weather on mobile